createdAt,value
2023-05-01T00:00:20.007Z,63.70
2023-05-01T00:02:54.391Z,64.13
2023-05-01T00:05:22.684Z,64.19
2023-05-01T00:07:50.689Z,64.72
2023-05-01T00:10:20.243Z,65.40
2023-05-01T00:12:49.726Z,64.88
2023-05-01T00:15:18.220Z,65.11
2023-05-01T00:17:46.331Z,65.23
2023-05-01T00:20:14.952Z,65.02
2023-05-01T00:22:42.996Z,65.29
2023-05-01T00:25:11.716Z,65.47
2023-05-01T00:27:39.845Z,65.37
2023-05-01T00:30:10.208Z,65.77
2023-05-01T00:32:38.785Z,65.59
2023-05-01T00:35:07.472Z,65.70
2023-05-01T00:37:35.689Z,66.09
2023-05-01T00:40:03.822Z,66.05
2023-05-01T00:42:35.848Z,66.32
2023-05-01T00:45:04.233Z,66.72
2023-05-01T00:47:34.187Z,66.96
2023-05-01T00:50:03.015Z,67.25
2023-05-01T00:52:31.212Z,67.22
2023-05-01T00:54:59.355Z,67.56
2023-05-01T00:57:27.531Z,67.75
2023-05-01T00:59:55.804Z,68.16
2023-05-01T01:02:24.611Z,67.90
2023-05-01T01:04:54.803Z,67.56
2023-05-01T01:07:30.719Z,68.15
2023-05-01T01:10:06.447Z,68.09
2023-05-01T01:12:45.179Z,68.03
2023-05-01T01:15:20.040Z,67.98
2023-05-01T01:17:54.234Z,67.94
2023-05-01T01:20:33.475Z,67.94
2023-05-01T01:23:20.643Z,67.74
2023-05-01T01:26:07.267Z,68.12
2023-05-01T01:29:01.668Z,67.93
2023-05-01T01:31:35.016Z,67.75
2023-05-01T01:34:16.076Z,67.70
2023-05-01T01:36:52.118Z,67.61
2023-05-01T01:39:30.324Z,67.94
2023-05-01T01:42:00.465Z,67.69
2023-05-01T01:44:34.930Z,67.77
2023-05-01T01:47:08.778Z,67.71
2023-05-01T01:49:41.931Z,67.54
2023-05-01T01:52:14.509Z,67.54
2023-05-01T01:54:46.026Z,67.79
2023-05-01T01:57:18.201Z,67.93
2023-05-01T01:59:49.606Z,67.39
2023-05-01T02:02:21.141Z,67.42
2023-05-01T02:04:52.445Z,68.17
2023-05-01T02:07:23.863Z,68.31
2023-05-01T02:09:54.675Z,68.50
2023-05-01T02:12:26.767Z,68.06
2023-05-01T02:14:55.944Z,68.37
2023-05-01T02:17:24.501Z,68.51
2023-05-01T02:19:55.453Z,68.52
2023-05-01T02:22:25.778Z,68.55
2023-05-01T02:24:57.374Z,68.79
2023-05-01T02:27:32.854Z,69.02
2023-05-01T02:30:01.606Z,68.61
2023-05-01T02:32:31.903Z,68.69
2023-05-01T02:35:01.841Z,68.34
2023-05-01T02:37:31.316Z,67.73
2023-05-01T02:40:00.706Z,67.92
2023-05-01T02:42:30.317Z,67.45
2023-05-01T02:45:01.117Z,67.31
2023-05-01T02:47:33.872Z,67.85
2023-05-01T02:50:04.458Z,68.06
2023-05-01T02:52:33.694Z,66.92
2023-05-01T02:55:21.928Z,67.00
2023-05-01T02:57:52.102Z,67.04
2023-05-01T03:00:20.892Z,66.58
2023-05-01T03:02:49.025Z,66.73
2023-05-01T03:05:19.934Z,66.74
2023-05-01T03:07:48.437Z,67.10
2023-05-01T03:10:16.904Z,67.23
2023-05-01T03:12:45.448Z,67.63
2023-05-01T03:15:13.911Z,67.41
2023-05-01T03:17:42.106Z,68.22
2023-05-01T03:20:10.954Z,67.56
2023-05-01T03:22:41.381Z,67.37
2023-05-01T03:25:11.323Z,67.20
2023-05-01T03:27:39.477Z,67.28
2023-05-01T03:30:08.948Z,67.90
2023-05-01T03:32:40.083Z,68.17
2023-05-01T03:35:13.900Z,67.99
2023-05-01T03:37:43.332Z,68.31
2023-05-01T03:40:14.825Z,68.71
2023-05-01T03:43:01.322Z,68.54
2023-05-01T03:45:29.451Z,68.73
2023-05-01T03:47:57.616Z,68.02
2023-05-01T03:50:26.223Z,67.54
2023-05-01T03:52:55.622Z,67.42
2023-05-01T03:55:23.877Z,67.33
2023-05-01T03:57:54.153Z,66.75
2023-05-01T04:00:22.528Z,66.03
2023-05-01T04:02:50.732Z,65.02
2023-05-01T04:05:23.683Z,64.39
2023-05-01T04:07:56.625Z,63.71
2023-05-01T04:10:24.992Z,63.25
2023-05-01T04:13:00.571Z,62.17
2023-05-01T04:15:29.135Z,61.29
2023-05-01T04:17:57.714Z,59.28
2023-05-01T04:20:25.829Z,58.20
2023-05-01T04:22:55.073Z,58.16
2023-05-01T04:25:24.678Z,57.12
2023-05-01T04:27:57.438Z,57.08
2023-05-01T04:30:25.475Z,56.16
2023-05-01T04:32:54.284Z,54.72
2023-05-01T04:35:22.637Z,53.29
2023-05-01T04:37:51.065Z,52.22
2023-05-01T04:40:19.193Z,51.34
2023-05-01T04:42:48.599Z,51.23
2023-05-01T04:45:16.921Z,51.69
2023-05-01T04:47:45.180Z,52.48
2023-05-01T04:50:13.282Z,51.94
2023-05-01T04:52:41.445Z,50.88
2023-05-01T04:55:11.556Z,51.15
2023-05-01T04:57:49.748Z,49.53
2023-05-01T05:00:19.152Z,47.50
2023-05-01T05:02:54.605Z,46.51
2023-05-01T05:05:22.857Z,45.87
2023-05-01T05:07:52.395Z,41.18
2023-05-01T05:10:37.397Z,38.54
2023-05-01T05:13:26.822Z,38.79
2023-05-01T05:16:00.937Z,38.88
2023-05-01T05:18:29.541Z,39.43
2023-05-01T05:20:58.443Z,40.45
2023-05-01T05:23:26.612Z,38.79
2023-05-01T05:25:55.409Z,37.58
2023-05-01T05:28:23.880Z,35.65
2023-05-01T05:30:53.949Z,35.68
2023-05-01T05:33:22.457Z,36.47
2023-05-01T05:35:50.720Z,36.48
2023-05-01T05:38:21.492Z,37.44
2023-05-01T05:40:55.106Z,34.55
2023-05-01T05:43:26.042Z,33.64
2023-05-01T05:45:59.784Z,32.66
2023-05-01T05:48:28.760Z,31.62
2023-05-01T05:50:57.544Z,29.68
2023-05-01T05:53:26.628Z,28.29
2023-05-01T05:55:55.573Z,26.91
2023-05-01T05:58:24.706Z,25.67
2023-05-01T06:00:55.802Z,24.95
2023-05-01T06:03:25.962Z,24.19
2023-05-01T06:05:58.438Z,22.76
2023-05-01T06:08:27.448Z,22.51
2023-05-01T06:10:55.877Z,22.32
2023-05-01T06:13:23.874Z,21.59
2023-05-01T06:15:52.398Z,21.82
2023-05-01T06:18:21.097Z,20.59
2023-05-01T06:20:51.956Z,19.87
2023-05-01T06:23:20.688Z,19.37
2023-05-01T06:25:58.920Z,19.62
2023-05-01T06:28:27.643Z,19.11
2023-05-01T06:30:56.325Z,19.70
2023-05-01T06:33:26.275Z,18.95
2023-05-01T06:36:06.882Z,18.82
2023-05-01T06:38:35.046Z,17.78
2023-05-01T06:41:03.614Z,17.65
2023-05-01T06:43:31.904Z,17.93
2023-05-01T06:45:59.962Z,17.29
2023-05-01T06:48:28.067Z,17.39
2023-05-01T06:50:57.030Z,17.45
2023-05-01T06:53:26.775Z,16.91
2023-05-01T06:55:54.848Z,16.72
2023-05-01T06:58:24.465Z,16.58
2023-05-01T07:00:54.747Z,17.21
2023-05-01T07:03:23.202Z,16.89
2023-05-01T07:05:51.480Z,17.45
2023-05-01T07:08:21.674Z,17.02
2023-05-01T07:10:51.488Z,17.51
2023-05-01T07:13:19.736Z,17.08
2023-05-01T07:15:48.870Z,17.68
2023-05-01T07:18:17.254Z,17.56
2023-05-01T07:20:45.636Z,17.92
2023-05-01T07:23:13.794Z,17.68
2023-05-01T07:25:42.914Z,17.81
2023-05-01T07:28:12.311Z,18.10
2023-05-01T07:30:40.335Z,18.36
2023-05-01T07:33:08.522Z,18.68
2023-05-01T07:35:36.705Z,19.06
2023-05-01T07:38:04.965Z,19.16
2023-05-01T07:40:34.421Z,19.20
2023-05-01T07:43:03.538Z,19.00
2023-05-01T07:45:33.016Z,18.50
2023-05-01T07:48:01.282Z,18.17
2023-05-01T07:50:29.562Z,18.45
2023-05-01T07:52:57.615Z,18.80
2023-05-01T07:55:25.967Z,19.12
2023-05-01T07:57:54.164Z,19.95
2023-05-01T08:00:22.696Z,19.65
2023-05-01T08:02:52.894Z,18.82
2023-05-01T08:05:21.155Z,19.85
2023-05-01T08:07:49.148Z,19.77
2023-05-01T08:10:17.464Z,19.92
2023-05-01T08:12:46.031Z,19.27
2023-05-01T08:15:14.280Z,20.09
2023-05-01T08:17:42.566Z,19.74
2023-05-01T08:20:14.037Z,19.56
2023-05-01T08:22:42.456Z,18.99
2023-05-01T08:25:10.600Z,19.10
2023-05-01T08:27:40.066Z,20.73
2023-05-01T08:30:09.857Z,21.87
2023-05-01T08:32:37.891Z,22.81
2023-05-01T08:35:07.063Z,24.15
2023-05-01T08:37:36.661Z,25.86
2023-05-01T08:40:08.844Z,27.43
2023-05-01T08:42:39.001Z,28.30
2023-05-01T08:45:09.556Z,29.36
2023-05-01T08:47:40.291Z,31.60
2023-05-01T08:50:12.288Z,32.37
2023-05-01T08:52:43.564Z,33.97
2023-05-01T08:55:14.572Z,35.13
2023-05-01T08:57:46.512Z,35.43
2023-05-01T09:00:20.498Z,36.20
2023-05-01T09:02:51.312Z,37.64
2023-05-01T09:05:21.014Z,37.77
2023-05-01T09:07:50.569Z,38.09
2023-05-01T09:10:19.496Z,39.08
2023-05-01T09:12:53.623Z,40.24
2023-05-01T09:15:22.429Z,40.11
2023-05-01T09:17:51.622Z,40.53
2023-05-01T09:20:21.000Z,40.77
2023-05-01T09:22:50.844Z,42.37
2023-05-01T09:25:19.448Z,42.41
2023-05-01T09:27:48.582Z,42.60
2023-05-01T09:30:34.824Z,42.77
2023-05-01T09:33:07.634Z,43.28
2023-05-01T09:35:51.615Z,43.38
2023-05-01T09:38:23.398Z,43.27
2023-05-01T09:40:53.129Z,42.79
2023-05-01T09:43:28.406Z,43.34
2023-05-01T09:46:05.277Z,43.65
2023-05-01T09:48:35.930Z,43.44
2023-05-01T09:51:22.771Z,43.42
2023-05-01T09:53:53.167Z,43.20
2023-05-01T09:56:22.685Z,43.07
2023-05-01T09:58:53.055Z,43.36
2023-05-01T10:01:39.456Z,45.14
2023-05-01T10:04:08.858Z,44.27
2023-05-01T10:06:38.157Z,44.21
2023-05-01T10:09:16.735Z,42.99
2023-05-01T10:11:49.732Z,43.92
2023-05-01T10:14:17.908Z,42.88
2023-05-01T10:16:46.622Z,43.13
2023-05-01T10:19:16.115Z,43.98
2023-05-01T10:21:44.350Z,44.10
2023-05-01T10:24:15.235Z,44.38
2023-05-01T10:26:43.933Z,44.78
2023-05-01T10:29:13.577Z,44.08
2023-05-01T10:31:42.671Z,44.23
2023-05-01T10:34:13.021Z,44.88
2023-05-01T10:36:44.922Z,43.84
2023-05-01T10:39:32.796Z,44.33
2023-05-01T10:42:11.229Z,44.64
2023-05-01T10:44:39.667Z,44.10
2023-05-01T10:47:46.667Z,43.84
2023-05-01T10:50:16.328Z,43.84
2023-05-01T10:53:18.519Z,43.46
2023-05-01T10:55:50.143Z,44.47
2023-05-01T10:58:51.858Z,42.65
2023-05-01T11:01:34.225Z,41.98
2023-05-01T11:04:04.739Z,42.58
2023-05-01T11:06:33.539Z,42.29
2023-05-01T11:09:02.318Z,42.91
2023-05-01T11:11:51.552Z,44.51
2023-05-01T11:14:19.751Z,44.32
2023-05-01T11:16:49.194Z,44.84
2023-05-01T11:19:46.092Z,44.83
2023-05-01T11:22:14.513Z,45.04
2023-05-01T11:24:43.359Z,44.87
2023-05-01T11:27:16.678Z,44.91
2023-05-01T11:29:49.665Z,44.76
2023-05-01T11:32:25.095Z,44.72
2023-05-01T11:34:53.893Z,44.80
2023-05-01T11:37:39.870Z,44.67
2023-05-01T11:40:20.532Z,44.42
2023-05-01T11:42:51.376Z,43.68
2023-05-01T11:45:21.077Z,44.03
2023-05-01T11:47:49.938Z,44.55
2023-05-01T11:50:18.398Z,44.60
2023-05-01T11:52:49.385Z,43.97
2023-05-01T11:55:18.013Z,43.64
2023-05-01T11:57:47.911Z,44.14
2023-05-01T12:00:27.148Z,44.15
2023-05-01T12:03:04.087Z,44.53
2023-05-01T12:05:35.522Z,44.55
2023-05-01T12:08:14.798Z,44.54
2023-05-01T12:10:44.442Z,44.64
2023-05-01T12:13:14.516Z,44.09
2023-05-01T12:15:46.288Z,43.90
2023-05-01T12:18:15.832Z,43.89
2023-05-01T12:20:47.326Z,43.43
2023-05-01T12:23:17.282Z,43.00
2023-05-01T12:25:46.946Z,43.05
2023-05-01T12:28:18.359Z,43.31
2023-05-01T12:30:49.514Z,42.71
2023-05-01T12:33:19.854Z,42.53
2023-05-01T12:35:49.554Z,42.45
2023-05-01T12:38:19.253Z,42.53
2023-05-01T12:40:53.767Z,42.67
2023-05-01T12:43:22.764Z,42.58
2023-05-01T12:45:55.398Z,42.54
2023-05-01T12:48:24.127Z,42.19
2023-05-01T12:50:54.950Z,41.64
2023-05-01T12:53:24.770Z,41.92
2023-05-01T12:55:54.482Z,41.77
2023-05-01T12:58:23.156Z,41.42
2023-05-01T13:00:53.090Z,41.09
2023-05-01T13:03:26.311Z,40.95
2023-05-01T13:05:56.724Z,40.54
2023-05-01T13:08:30.838Z,40.53
2023-05-01T13:11:01.978Z,39.92
2023-05-01T13:13:32.325Z,39.74
2023-05-01T13:16:09.438Z,39.43
2023-05-01T13:18:46.843Z,39.05
2023-05-01T13:21:16.849Z,38.48
2023-05-01T13:23:54.579Z,38.71
2023-05-01T13:26:30.464Z,38.74
2023-05-01T13:29:00.192Z,39.16
2023-05-01T13:31:29.180Z,38.03
2023-05-01T13:34:00.054Z,38.17
2023-05-01T13:36:33.327Z,38.20
2023-05-01T13:39:01.377Z,38.67
2023-05-01T13:41:30.105Z,38.41
2023-05-01T13:43:58.681Z,38.34
2023-05-01T13:46:28.191Z,38.28
2023-05-01T13:48:59.019Z,38.89
2023-05-01T13:51:28.308Z,39.24
2023-05-01T13:53:57.499Z,39.49
2023-05-01T13:56:25.557Z,40.01
2023-05-01T13:58:53.598Z,40.41
2023-05-01T14:01:23.461Z,40.32
2023-05-01T14:03:52.101Z,40.55
2023-05-01T14:06:22.222Z,39.71
2023-05-01T14:08:54.277Z,39.75
2023-05-01T14:11:22.470Z,39.83
2023-05-01T14:13:51.941Z,39.76
2023-05-01T14:16:25.940Z,39.61
2023-05-01T14:18:57.036Z,39.67
2023-05-01T14:21:28.632Z,39.22
2023-05-01T14:23:58.283Z,39.14
2023-05-01T14:26:26.770Z,38.68
2023-05-01T14:28:55.590Z,39.25
2023-05-01T14:31:28.594Z,39.74
2023-05-01T14:33:59.565Z,39.67
2023-05-01T14:36:31.668Z,39.36
2023-05-01T14:39:01.657Z,38.87
2023-05-01T14:41:30.202Z,39.33
2023-05-01T14:43:58.348Z,39.43
2023-05-01T14:46:31.683Z,38.84
2023-05-01T14:49:01.306Z,39.00
2023-05-01T14:51:32.311Z,39.47
2023-05-01T14:54:00.690Z,39.32
2023-05-01T14:56:28.823Z,39.66
2023-05-01T14:58:56.925Z,40.24
2023-05-01T15:01:25.209Z,40.53
2023-05-01T15:03:54.245Z,40.50
2023-05-01T15:06:24.436Z,40.67
2023-05-01T15:08:54.013Z,40.90
2023-05-01T15:11:22.164Z,40.28
2023-05-01T15:13:50.668Z,40.35
2023-05-01T15:16:18.858Z,40.25
2023-05-01T15:18:47.186Z,40.45
2023-05-01T15:21:15.189Z,40.72
2023-05-01T15:23:45.254Z,41.08
2023-05-01T15:26:15.053Z,41.00
2023-05-01T15:28:43.060Z,41.10
2023-05-01T15:31:11.874Z,41.21
2023-05-01T15:33:40.153Z,40.86
2023-05-01T15:36:08.714Z,40.61
2023-05-01T15:38:36.819Z,40.15
2023-05-01T15:41:04.993Z,40.15
2023-05-01T15:43:35.561Z,40.29
2023-05-01T15:46:03.631Z,39.99
2023-05-01T15:48:32.718Z,39.64
2023-05-01T15:51:00.866Z,39.72
2023-05-01T15:53:29.075Z,39.35
2023-05-01T15:55:58.569Z,39.32
2023-05-01T15:58:26.665Z,39.15
2023-05-01T16:00:56.441Z,39.20
2023-05-01T16:03:24.785Z,39.23
2023-05-01T16:05:53.100Z,39.27
2023-05-01T16:08:21.150Z,39.89
2023-05-01T16:10:50.333Z,40.37
2023-05-01T16:13:18.385Z,40.18
2023-05-01T16:15:46.465Z,40.18
2023-05-01T16:18:20.944Z,40.47
2023-05-01T16:20:49.082Z,40.43
2023-05-01T16:23:17.089Z,40.32
2023-05-01T16:25:45.235Z,40.21
2023-05-01T16:28:14.051Z,39.78
2023-05-01T16:30:42.839Z,39.64
2023-05-01T16:33:18.067Z,39.81
2023-05-01T16:35:50.058Z,39.73
2023-05-01T16:38:19.215Z,39.65
2023-05-01T16:40:49.090Z,39.72
2023-05-01T16:43:17.448Z,39.84
2023-05-01T16:45:46.951Z,39.37
2023-05-01T16:48:20.854Z,39.49
2023-05-01T16:50:50.561Z,39.59
2023-05-01T16:53:18.657Z,39.63
2023-05-01T16:55:46.706Z,39.44
2023-05-01T16:58:15.114Z,39.90
2023-05-01T17:00:43.545Z,39.77
2023-05-01T17:03:11.702Z,40.00
2023-05-01T17:05:39.774Z,40.30
2023-05-01T17:08:09.123Z,40.42
2023-05-01T17:10:38.414Z,40.19
2023-05-01T17:13:07.937Z,40.13
2023-05-01T17:15:36.159Z,39.87
2023-05-01T17:18:05.870Z,39.59
2023-05-01T17:20:33.997Z,38.87
2023-05-01T17:23:02.196Z,38.45
2023-05-01T17:25:31.768Z,37.69
2023-05-01T17:28:00.226Z,37.90
2023-05-01T17:30:28.403Z,37.61
2023-05-01T17:32:57.781Z,37.29
2023-05-01T17:35:26.427Z,37.54
2023-05-01T17:37:54.695Z,36.71
2023-05-01T17:40:22.736Z,36.83
2023-05-01T17:42:52.112Z,37.19
2023-05-01T17:45:21.054Z,37.24
2023-05-01T17:47:49.213Z,37.69
2023-05-01T17:50:17.355Z,37.50
2023-05-01T17:52:45.868Z,37.76
2023-05-01T17:55:17.116Z,36.99
2023-05-01T17:57:47.069Z,37.34
2023-05-01T18:00:17.656Z,37.49
2023-05-01T18:02:47.552Z,37.51
2023-05-01T18:05:16.434Z,37.29
2023-05-01T18:07:44.623Z,37.30
2023-05-01T18:10:12.886Z,37.75
2023-05-01T18:12:41.023Z,37.92
2023-05-01T18:15:10.217Z,37.93
2023-05-01T18:17:39.664Z,38.34
2023-05-01T18:20:08.862Z,38.32
2023-05-01T18:22:36.938Z,38.49
2023-05-01T18:25:06.592Z,37.55
2023-05-01T18:27:34.546Z,38.63
2023-05-01T18:30:03.239Z,38.04
2023-05-01T18:32:46.215Z,37.99
2023-05-01T18:35:18.591Z,37.19
2023-05-01T18:37:47.209Z,37.36
2023-05-01T18:40:15.311Z,37.23
2023-05-01T18:42:43.571Z,36.74
2023-05-01T18:45:12.023Z,36.83
2023-05-01T18:47:40.216Z,36.57
2023-05-01T18:50:09.682Z,37.21
2023-05-01T18:52:39.097Z,37.04
2023-05-01T18:55:10.193Z,37.25
2023-05-01T18:57:38.200Z,36.90
2023-05-01T19:00:08.088Z,36.48
2023-05-01T19:02:36.832Z,36.26
2023-05-01T19:05:05.426Z,36.46
2023-05-01T19:07:33.826Z,35.58
2023-05-01T19:10:03.999Z,36.17
2023-05-01T19:12:33.189Z,34.85
2023-05-01T19:15:01.532Z,35.39
2023-05-01T19:17:29.640Z,35.12
2023-05-01T19:19:57.932Z,35.17
2023-05-01T19:22:26.120Z,34.20
2023-05-01T19:24:54.149Z,33.96
2023-05-01T19:27:25.443Z,34.86
2023-05-01T19:29:54.230Z,34.88
2023-05-01T19:32:23.213Z,34.50
2023-05-01T19:34:51.474Z,34.80
2023-05-01T19:37:19.477Z,34.86
2023-05-01T19:39:47.508Z,34.37
2023-05-01T19:42:16.084Z,34.05
2023-05-01T19:44:45.668Z,34.17
2023-05-01T19:47:14.043Z,34.26
2023-05-01T19:49:42.122Z,33.80
2023-05-01T19:52:10.267Z,34.36
2023-05-01T19:54:38.417Z,34.40
2023-05-01T19:57:06.787Z,34.00
2023-05-01T19:59:38.801Z,33.99
2023-05-01T20:02:08.390Z,34.19
2023-05-01T20:04:36.635Z,34.98
2023-05-01T20:07:04.818Z,35.78
2023-05-01T20:09:32.865Z,36.94
2023-05-01T20:12:01.667Z,36.68
2023-05-01T20:14:32.786Z,37.40
2023-05-01T20:17:02.358Z,38.15
2023-05-01T20:19:31.778Z,38.57
2023-05-01T20:22:00.073Z,38.21
2023-05-01T20:24:28.245Z,37.79
2023-05-01T20:26:56.262Z,38.13
2023-05-01T20:29:24.581Z,38.20
2023-05-01T20:31:52.617Z,38.26
2023-05-01T20:34:21.148Z,38.96
2023-05-01T20:36:50.558Z,38.70
2023-05-01T20:39:18.787Z,38.37
2023-05-01T20:41:46.843Z,38.50
2023-05-01T20:44:15.291Z,38.54
2023-05-01T20:46:44.039Z,38.10
2023-05-01T20:49:15.041Z,38.13
2023-05-01T20:51:44.012Z,38.42
2023-05-01T20:54:13.400Z,38.47
2023-05-01T20:56:41.796Z,38.49
2023-05-01T20:59:09.860Z,38.24
2023-05-01T21:01:38.028Z,38.43
2023-05-01T21:04:06.736Z,38.82
2023-05-01T21:06:35.118Z,38.70
2023-05-01T21:09:03.461Z,39.01
2023-05-01T21:11:32.863Z,38.95
2023-05-01T21:14:00.922Z,38.56
2023-05-01T21:16:29.286Z,38.66
2023-05-01T21:18:57.648Z,39.42
2023-05-01T21:21:26.421Z,39.56
2023-05-01T21:23:54.874Z,39.14
2023-05-01T21:26:22.960Z,40.03
2023-05-01T21:28:52.372Z,39.93
2023-05-01T21:31:20.741Z,39.88
2023-05-01T21:33:49.889Z,40.37
2023-05-01T21:36:19.030Z,40.32
2023-05-01T21:38:47.536Z,40.82
2023-05-01T21:41:16.194Z,40.36
2023-05-01T21:43:44.850Z,40.44
2023-05-01T21:46:17.061Z,41.10
2023-05-01T21:48:50.593Z,40.72
2023-05-01T21:51:19.027Z,41.46
2023-05-01T21:53:47.143Z,41.21
2023-05-01T21:56:15.819Z,41.40
2023-05-01T21:58:44.030Z,41.82
2023-05-01T22:01:17.234Z,41.11
2023-05-01T22:03:47.144Z,41.13
2023-05-01T22:06:15.383Z,41.05
2023-05-01T22:08:43.507Z,41.08
2023-05-01T22:11:11.714Z,41.81
2023-05-01T22:13:39.813Z,41.74
2023-05-01T22:16:08.755Z,41.46
2023-05-01T22:18:38.224Z,41.12
2023-05-01T22:21:06.395Z,41.62
2023-05-01T22:23:34.417Z,41.74
2023-05-01T22:26:02.376Z,41.75
2023-05-01T22:28:30.557Z,41.72
2023-05-01T22:30:58.681Z,41.62
2023-05-01T22:33:26.812Z,42.10
2023-05-01T22:35:56.286Z,41.71
2023-05-01T22:38:24.348Z,42.38
2023-05-01T22:40:52.339Z,42.42
2023-05-01T22:43:20.409Z,42.10
2023-05-01T22:45:48.449Z,42.41
2023-05-01T22:48:16.653Z,42.30
2023-05-01T22:50:44.990Z,41.77
2023-05-01T22:53:14.351Z,42.04
2023-05-01T22:55:42.409Z,41.91
2023-05-01T22:58:10.506Z,42.15
2023-05-01T23:00:38.564Z,41.63
2023-05-01T23:03:06.835Z,42.16
2023-05-01T23:05:35.010Z,42.09
2023-05-01T23:08:03.162Z,42.19
2023-05-01T23:10:33.796Z,42.47
2023-05-01T23:13:02.033Z,42.33
2023-05-01T23:15:30.105Z,42.19
2023-05-01T23:17:58.302Z,42.18
2023-05-01T23:20:26.294Z,42.17
2023-05-01T23:22:54.730Z,42.01
2023-05-01T23:25:25.861Z,42.10
2023-05-01T23:27:56.595Z,42.17
2023-05-01T23:30:24.846Z,41.89
2023-05-01T23:32:53.171Z,42.21
2023-05-01T23:35:24.346Z,42.16
2023-05-01T23:37:52.867Z,42.07
2023-05-01T23:40:20.846Z,42.90
2023-05-01T23:42:49.980Z,42.96
2023-05-01T23:45:19.688Z,42.63
2023-05-01T23:47:47.737Z,43.02
2023-05-01T23:50:16.030Z,42.83
2023-05-01T23:52:44.014Z,42.64
2023-05-01T23:55:13.054Z,43.16
2023-05-01T23:57:41.082Z,43.24
